sensor_id;sensor_type;location;lat;lon;timestamp;temperature;humidity
70214;DHT22;60138;55.808;37.078;2022-10-23T00:02:04;6.46;73.30
70214;DHT22;60138;55.808;37.078;2022-10-23T00:04:30;6.46;73.28
70214;DHT22;60138;55.808;37.078;2022-10-23T00:06:55;6.45;73.23
70214;DHT22;60138;55.808;37.078;2022-10-23T00:09:22;6.44;73.25
70214;DHT22;60138;55.808;37.078;2022-10-23T00:11:49;6.43;73.25
70214;DHT22;60138;55.808;37.078;2022-10-23T00:14:17;6.40;73.24
70214;DHT22;60138;55.808;37.078;2022-10-23T00:16:43;6.36;73.19
70214;DHT22;60138;55.808;37.078;2022-10-23T00:19:09;6.34;73.27
70214;DHT22;60138;55.808;37.078;2022-10-23T00:21:35;6.29;73.31
70214;DHT22;60138;55.808;37.078;2022-10-23T00:24:01;6.28;73.37
70214;DHT22;60138;55.808;37.078;2022-10-23T00:26:27;6.27;73.37
70214;DHT22;60138;55.808;37.078;2022-10-23T00:28:54;6.25;73.44
70214;DHT22;60138;55.808;37.078;2022-10-23T00:31:21;6.24;73.38
70214;DHT22;60138;55.808;37.078;2022-10-23T00:33:47;6.23;73.41
70214;DHT22;60138;55.808;37.078;2022-10-23T00:36:14;6.22;73.44
70214;DHT22;60138;55.808;37.078;2022-10-23T00:38:42;6.17;73.46
70214;DHT22;60138;55.808;37.078;2022-10-23T00:41:10;6.16;73.51
70214;DHT22;60138;55.808;37.078;2022-10-23T00:44:02;6.15;73.54
70214;DHT22;60138;55.808;37.078;2022-10-23T00:46:28;6.17;73.63
70214;DHT22;60138;55.808;37.078;2022-10-23T00:48:56;6.17;73.58
70214;DHT22;60138;55.808;37.078;2022-10-23T00:51:23;6.16;73.54
70214;DHT22;60138;55.808;37.078;2022-10-23T00:53:51;6.12;73.50
70214;DHT22;60138;55.808;37.078;2022-10-23T00:56:19;6.09;73.54
70214;DHT22;60138;55.808;37.078;2022-10-23T00:58:45;6.04;73.54
70214;DHT22;60138;55.808;37.078;2022-10-23T01:01:20;5.98;73.54
70214;DHT22;60138;55.808;37.078;2022-10-23T01:03:46;5.90;73.56
70214;DHT22;60138;55.808;37.078;2022-10-23T01:06:35;5.84;73.69
70214;DHT22;60138;55.808;37.078;2022-10-23T01:11:55;5.72;73.71
70214;DHT22;60138;55.808;37.078;2022-10-23T01:14:45;5.64;73.77
70214;DHT22;60138;55.808;37.078;2022-10-23T01:18:05;5.59;73.93
70214;DHT22;60138;55.808;37.078;2022-10-23T01:31:49;4.93;74.49
70214;DHT22;60138;55.808;37.078;2022-10-23T01:34:31;4.80;74.72
70214;DHT22;60138;55.808;37.078;2022-10-23T01:37:00;4.69;74.71
70214;DHT22;60138;55.808;37.078;2022-10-23T01:39:39;4.57;74.89
70214;DHT22;60138;55.808;37.078;2022-10-23T01:42:11;4.46;74.96
70214;DHT22;60138;55.808;37.078;2022-10-23T01:44:41;4.37;75.25
70214;DHT22;60138;55.808;37.078;2022-10-23T01:47:09;4.30;75.31
70214;DHT22;60138;55.808;37.078;2022-10-23T01:49:50;4.21;75.37
70214;DHT22;60138;55.808;37.078;2022-10-23T01:52:17;4.13;75.37
70214;DHT22;60138;55.808;37.078;2022-10-23T01:54:48;4.08;75.54
70214;DHT22;60138;55.808;37.078;2022-10-23T01:57:17;4.03;75.67
70214;DHT22;60138;55.808;37.078;2022-10-23T01:59:46;3.97;75.75
70214;DHT22;60138;55.808;37.078;2022-10-23T02:02:15;3.89;75.80
70214;DHT22;60138;55.808;37.078;2022-10-23T02:04:57;3.85;76.02
70214;DHT22;60138;55.808;37.078;2022-10-23T02:07:24;3.80;76.05
70214;DHT22;60138;55.808;37.078;2022-10-23T02:09:49;3.77;76.12
70214;DHT22;60138;55.808;37.078;2022-10-23T02:15:35;3.67;76.35
70214;DHT22;60138;55.808;37.078;2022-10-23T02:18:33;3.62;76.57
70214;DHT22;60138;55.808;37.078;2022-10-23T02:21:12;3.62;76.82
70214;DHT22;60138;55.808;37.078;2022-10-23T02:26:25;3.59;77.02
70214;DHT22;60138;55.808;37.078;2022-10-23T02:29:09;3.55;77.21
70214;DHT22;60138;55.808;37.078;2022-10-23T02:31:40;3.54;77.27
70214;DHT22;60138;55.808;37.078;2022-10-23T02:34:06;3.53;77.35
70214;DHT22;60138;55.808;37.078;2022-10-23T02:36:32;3.50;77.41
70214;DHT22;60138;55.808;37.078;2022-10-23T02:38:59;3.48;77.37
70214;DHT22;60138;55.808;37.078;2022-10-23T02:41:43;3.46;77.53
70214;DHT22;60138;55.808;37.078;2022-10-23T02:52:15;3.32;77.42
70214;DHT22;60138;55.808;37.078;2022-10-23T02:55:12;3.29;77.58
70214;DHT22;60138;55.808;37.078;2022-10-23T02:57:55;3.27;77.62
70214;DHT22;60138;55.808;37.078;2022-10-23T03:00:27;3.24;77.61
70214;DHT22;60138;55.808;37.078;2022-10-23T03:02:58;3.23;78.05
70214;DHT22;60138;55.808;37.078;2022-10-23T03:05:33;3.20;77.92
70214;DHT22;60138;55.808;37.078;2022-10-23T03:08:03;3.18;77.94
70214;DHT22;60138;55.808;37.078;2022-10-23T03:10:28;3.18;78.00
70214;DHT22;60138;55.808;37.078;2022-10-23T03:12:54;3.15;77.92
70214;DHT22;60138;55.808;37.078;2022-10-23T03:15:20;3.14;77.86
70214;DHT22;60138;55.808;37.078;2022-10-23T03:17:48;3.11;77.79
70214;DHT22;60138;55.808;37.078;2022-10-23T03:20:14;3.10;77.89
70214;DHT22;60138;55.808;37.078;2022-10-23T03:22:41;3.06;77.95
70214;DHT22;60138;55.808;37.078;2022-10-23T03:25:07;3.04;78.16
70214;DHT22;60138;55.808;37.078;2022-10-23T03:27:34;3.04;78.20
70214;DHT22;60138;55.808;37.078;2022-10-23T03:30:04;3.01;78.25
70214;DHT22;60138;55.808;37.078;2022-10-23T03:32:32;3.01;78.24
70214;DHT22;60138;55.808;37.078;2022-10-23T03:34:58;3.00;78.40
70214;DHT22;60138;55.808;37.078;2022-10-23T03:37:25;3.00;78.30
70214;DHT22;60138;55.808;37.078;2022-10-23T03:39:51;2.97;78.27
70214;DHT22;60138;55.808;37.078;2022-10-23T03:42:17;2.96;78.21
70214;DHT22;60138;55.808;37.078;2022-10-23T03:44:42;2.94;78.15
70214;DHT22;60138;55.808;37.078;2022-10-23T03:47:09;2.91;78.07
70214;DHT22;60138;55.808;37.078;2022-10-23T03:49:35;2.89;78.05
70214;DHT22;60138;55.808;37.078;2022-10-23T03:52:06;2.84;78.08
70214;DHT22;60138;55.808;37.078;2022-10-23T03:54:32;2.82;78.17
70214;DHT22;60138;55.808;37.078;2022-10-23T03:56:58;2.81;78.20
70214;DHT22;60138;55.808;37.078;2022-10-23T03:59:25;2.79;78.23
70214;DHT22;60138;55.808;37.078;2022-10-23T04:01:51;2.76;78.27
70214;DHT22;60138;55.808;37.078;2022-10-23T04:04:17;2.75;78.21
70214;DHT22;60138;55.808;37.078;2022-10-23T04:06:43;2.71;78.33
70214;DHT22;60138;55.808;37.078;2022-10-23T04:09:08;2.71;78.34
70214;DHT22;60138;55.808;37.078;2022-10-23T04:11:34;2.69;78.21
70214;DHT22;60138;55.808;37.078;2022-10-23T04:14:00;2.66;78.23
70214;DHT22;60138;55.808;37.078;2022-10-23T04:16:25;2.65;78.29
70214;DHT22;60138;55.808;37.078;2022-10-23T04:18:51;2.65;78.27
70214;DHT22;60138;55.808;37.078;2022-10-23T04:21:17;2.62;78.23
70214;DHT22;60138;55.808;37.078;2022-10-23T04:23:43;2.60;78.23
70214;DHT22;60138;55.808;37.078;2022-10-23T04:26:14;2.60;78.30
70214;DHT22;60138;55.808;37.078;2022-10-23T04:28:39;2.60;78.43
70214;DHT22;60138;55.808;37.078;2022-10-23T04:31:05;2.61;78.47
70214;DHT22;60138;55.808;37.078;2022-10-23T04:33:32;2.62;78.52
70214;DHT22;60138;55.808;37.078;2022-10-23T04:35:57;2.64;78.60
70214;DHT22;60138;55.808;37.078;2022-10-23T04:38:23;2.62;78.52
70214;DHT22;60138;55.808;37.078;2022-10-23T04:40:49;2.62;78.50
70214;DHT22;60138;55.808;37.078;2022-10-23T04:43:19;2.64;78.43
70214;DHT22;60138;55.808;37.078;2022-10-23T04:45:44;2.61;78.53
70214;DHT22;60138;55.808;37.078;2022-10-23T04:48:10;2.64;78.57
70214;DHT22;60138;55.808;37.078;2022-10-23T04:51:14;2.65;78.58
70214;DHT22;60138;55.808;37.078;2022-10-23T04:54:04;2.65;78.72
70214;DHT22;60138;55.808;37.078;2022-10-23T04:56:48;2.68;78.82
70214;DHT22;60138;55.808;37.078;2022-10-23T04:59:17;2.71;78.82
70214;DHT22;60138;55.808;37.078;2022-10-23T05:01:44;2.80;79.04
70214;DHT22;60138;55.808;37.078;2022-10-23T05:04:09;2.98;79.34
70214;DHT22;60138;55.808;37.078;2022-10-23T05:07:03;3.26;79.33
70214;DHT22;60138;55.808;37.078;2022-10-23T05:09:37;3.50;79.24
70214;DHT22;60138;55.808;37.078;2022-10-23T05:12:15;3.69;78.97
70214;DHT22;60138;55.808;37.078;2022-10-23T05:14:40;3.84;78.73
70214;DHT22;60138;55.808;37.078;2022-10-23T05:17:10;3.95;78.43
70214;DHT22;60138;55.808;37.078;2022-10-23T05:19:41;4.12;78.15
70214;DHT22;60138;55.808;37.078;2022-10-23T05:22:09;4.22;77.84
70214;DHT22;60138;55.808;37.078;2022-10-23T05:24:46;4.35;77.62
70214;DHT22;60138;55.808;37.078;2022-10-23T05:27:12;4.44;77.32
70214;DHT22;60138;55.808;37.078;2022-10-23T05:29:39;4.50;77.05
70214;DHT22;60138;55.808;37.078;2022-10-23T05:32:07;4.57;76.80
70214;DHT22;60138;55.808;37.078;2022-10-23T05:34:34;4.64;76.61
70214;DHT22;60138;55.808;37.078;2022-10-23T05:37:02;4.71;76.35
70214;DHT22;60138;55.808;37.078;2022-10-23T05:39:34;4.76;76.19
70214;DHT22;60138;55.808;37.078;2022-10-23T05:42:02;4.83;76.11
70214;DHT22;60138;55.808;37.078;2022-10-23T05:44:27;4.93;75.98
70214;DHT22;60138;55.808;37.078;2022-10-23T05:47:08;5.00;75.79
70214;DHT22;60138;55.808;37.078;2022-10-23T05:49:54;5.11;75.65
70214;DHT22;60138;55.808;37.078;2022-10-23T05:52:38;5.18;75.47
70214;DHT22;60138;55.808;37.078;2022-10-23T05:55:12;5.25;75.30
70214;DHT22;60138;55.808;37.078;2022-10-23T05:57:55;5.30;75.14
70214;DHT22;60138;55.808;37.078;2022-10-23T06:00:37;5.43;74.99
70214;DHT22;60138;55.808;37.078;2022-10-23T06:03:23;5.54;74.79
70214;DHT22;60138;55.808;37.078;2022-10-23T06:05:49;5.65;74.60
70214;DHT22;60138;55.808;37.078;2022-10-23T06:08:19;5.76;74.46
70214;DHT22;60138;55.808;37.078;2022-10-23T06:10:47;5.82;74.27
70214;DHT22;60138;55.808;37.078;2022-10-23T06:13:13;5.86;74.15
70214;DHT22;60138;55.808;37.078;2022-10-23T06:15:39;5.91;73.99
70214;DHT22;60138;55.808;37.078;2022-10-23T06:18:09;5.99;73.89
70214;DHT22;60138;55.808;37.078;2022-10-23T06:20:45;6.14;73.73
70214;DHT22;60138;55.808;37.078;2022-10-23T06:23:19;6.29;73.64
70214;DHT22;60138;55.808;37.078;2022-10-23T06:26:07;6.41;73.17
70214;DHT22;60138;55.808;37.078;2022-10-23T06:28:47;6.50;72.95
70214;DHT22;60138;55.808;37.078;2022-10-23T06:31:15;6.61;72.95
70214;DHT22;60138;55.808;37.078;2022-10-23T06:33:41;6.66;72.60
70214;DHT22;60138;55.808;37.078;2022-10-23T06:36:08;6.56;72.58
70214;DHT22;60138;55.808;37.078;2022-10-23T06:38:34;6.52;72.41
70214;DHT22;60138;55.808;37.078;2022-10-23T06:41:00;6.51;72.29
70214;DHT22;60138;55.808;37.078;2022-10-23T06:43:34;6.51;72.36
70214;DHT22;60138;55.808;37.078;2022-10-23T06:46:23;6.55;72.37
70214;DHT22;60138;55.808;37.078;2022-10-23T06:49:07;6.56;72.22
70214;DHT22;60138;55.808;37.078;2022-10-23T06:51:41;6.66;72.05
70214;DHT22;60138;55.808;37.078;2022-10-23T06:54:11;6.68;71.84
70214;DHT22;60138;55.808;37.078;2022-10-23T06:56:48;6.73;72.03
70214;DHT22;60138;55.808;37.078;2022-10-23T06:59:18;6.84;71.95
70214;DHT22;60138;55.808;37.078;2022-10-23T07:01:45;6.95;71.93
70214;DHT22;60138;55.808;37.078;2022-10-23T07:04:11;7.04;71.74
70214;DHT22;60138;55.808;37.078;2022-10-23T07:06:37;7.10;71.47
70214;DHT22;60138;55.808;37.078;2022-10-23T07:09:03;7.14;71.48
70214;DHT22;60138;55.808;37.078;2022-10-23T07:11:47;7.22;71.15
70214;DHT22;60138;55.808;37.078;2022-10-23T07:14:13;7.31;71.21
70214;DHT22;60138;55.808;37.078;2022-10-23T07:16:38;7.41;70.99
70214;DHT22;60138;55.808;37.078;2022-10-23T07:19:04;7.46;70.96
70214;DHT22;60138;55.808;37.078;2022-10-23T07:21:42;7.48;70.79
70214;DHT22;60138;55.808;37.078;2022-10-23T07:24:46;7.56;70.70
70214;DHT22;60138;55.808;37.078;2022-10-23T07:27:29;7.60;70.35
70214;DHT22;60138;55.808;37.078;2022-10-23T07:29:59;7.61;69.97
70214;DHT22;60138;55.808;37.078;2022-10-23T07:32:29;7.63;70.18
70214;DHT22;60138;55.808;37.078;2022-10-23T07:35:13;7.64;69.85
70214;DHT22;60138;55.808;37.078;2022-10-23T07:37:49;7.63;69.84
70214;DHT22;60138;55.808;37.078;2022-10-23T07:40:15;7.67;69.99
70214;DHT22;60138;55.808;37.078;2022-10-23T07:42:43;7.69;69.83
70214;DHT22;60138;55.808;37.078;2022-10-23T07:45:09;7.75;69.79
70214;DHT22;60138;55.808;37.078;2022-10-23T07:47:38;7.82;69.75
70214;DHT22;60138;55.808;37.078;2022-10-23T07:50:04;7.90;69.80
70214;DHT22;60138;55.808;37.078;2022-10-23T07:52:30;7.99;69.61
70214;DHT22;60138;55.808;37.078;2022-10-23T07:55:07;8.04;69.47
70214;DHT22;60138;55.808;37.078;2022-10-23T07:57:37;8.14;69.43
70214;DHT22;60138;55.808;37.078;2022-10-23T08:00:24;8.19;69.39
70214;DHT22;60138;55.808;37.078;2022-10-23T08:03:00;8.22;69.36
70214;DHT22;60138;55.808;37.078;2022-10-23T08:05:26;8.24;69.23
70214;DHT22;60138;55.808;37.078;2022-10-23T08:07:56;8.24;69.16
70214;DHT22;60138;55.808;37.078;2022-10-23T08:10:23;8.26;69.04
70214;DHT22;60138;55.808;37.078;2022-10-23T08:12:48;8.26;69.18
70214;DHT22;60138;55.808;37.078;2022-10-23T08:15:20;8.26;69.08
70214;DHT22;60138;55.808;37.078;2022-10-23T08:17:57;8.28;69.08
70214;DHT22;60138;55.808;37.078;2022-10-23T08:20:44;8.23;68.95
70214;DHT22;60138;55.808;37.078;2022-10-23T08:23:11;8.24;69.00
70214;DHT22;60138;55.808;37.078;2022-10-23T08:25:38;8.23;68.90
70214;DHT22;60138;55.808;37.078;2022-10-23T08:28:06;8.16;69.07
70214;DHT22;60138;55.808;37.078;2022-10-23T08:30:36;8.12;68.97
70214;DHT22;60138;55.808;37.078;2022-10-23T08:33:03;8.07;68.91
70214;DHT22;60138;55.808;37.078;2022-10-23T08:35:28;8.04;69.08
70214;DHT22;60138;55.808;37.078;2022-10-23T08:37:54;8.00;68.70
70214;DHT22;60138;55.808;37.078;2022-10-23T08:40:24;7.96;68.94
70214;DHT22;60138;55.808;37.078;2022-10-23T08:46:12;7.94;69.17
70214;DHT22;60138;55.808;37.078;2022-10-23T08:49:19;7.97;69.16
70214;DHT22;60138;55.808;37.078;2022-10-23T08:52:01;8.01;69.27
70214;DHT22;60138;55.808;37.078;2022-10-23T08:54:48;8.12;69.32
70214;DHT22;60138;55.808;37.078;2022-10-23T08:57:21;8.21;69.29
70214;DHT22;60138;55.808;37.078;2022-10-23T08:59:51;8.33;69.23
70214;DHT22;60138;55.808;37.078;2022-10-23T09:04:51;8.41;68.94
70214;DHT22;60138;55.808;37.078;2022-10-23T09:12:45;8.52;68.58
70214;DHT22;60138;55.808;37.078;2022-10-23T09:15:57;8.47;68.35
70214;DHT22;60138;55.808;37.078;2022-10-23T09:18:15;8.38;68.55
70214;DHT22;60138;55.808;37.078;2022-10-23T09:20:44;8.34;68.49
70214;DHT22;60138;55.808;37.078;2022-10-23T09:25:41;8.23;68.55
70214;DHT22;60138;55.808;37.078;2022-10-23T09:28:17;8.21;68.85
70214;DHT22;60138;55.808;37.078;2022-10-23T09:30:43;8.17;68.87
70214;DHT22;60138;55.808;37.078;2022-10-23T09:35:57;8.14;69.04
70214;DHT22;60138;55.808;37.078;2022-10-23T09:38:33;8.15;69.16
70214;DHT22;60138;55.808;37.078;2022-10-23T09:41:02;8.12;69.15
70214;DHT22;60138;55.808;37.078;2022-10-23T09:43:30;8.09;69.33
70214;DHT22;60138;55.808;37.078;2022-10-23T09:46:04;8.08;69.48
70214;DHT22;60138;55.808;37.078;2022-10-23T09:48:33;8.12;69.52
70214;DHT22;60138;55.808;37.078;2022-10-23T09:51:16;8.18;69.63
70214;DHT22;60138;55.808;37.078;2022-10-23T09:53:57;8.24;69.55
70214;DHT22;60138;55.808;37.078;2022-10-23T09:56:30;8.29;69.54
70214;DHT22;60138;55.808;37.078;2022-10-23T10:01:48;8.24;69.42
70214;DHT22;60138;55.808;37.078;2022-10-23T10:04:39;8.27;69.47
70214;DHT22;60138;55.808;37.078;2022-10-23T10:07:20;8.23;69.29
70214;DHT22;60138;55.808;37.078;2022-10-23T10:09:46;8.24;69.52
70214;DHT22;60138;55.808;37.078;2022-10-23T10:12:41;8.27;69.45
70214;DHT22;60138;55.808;37.078;2022-10-23T10:15:48;8.27;69.45
70214;DHT22;60138;55.808;37.078;2022-10-23T10:18:36;8.24;69.45
70214;DHT22;60138;55.808;37.078;2022-10-23T10:21:27;8.23;69.48
70214;DHT22;60138;55.808;37.078;2022-10-23T10:37:20;8.19;69.75
70214;DHT22;60138;55.808;37.078;2022-10-23T10:40:27;8.20;69.83
70214;DHT22;60138;55.808;37.078;2022-10-23T10:45:47;8.22;69.86
70214;DHT22;60138;55.808;37.078;2022-10-23T10:56:38;8.26;70.07
70214;DHT22;60138;55.808;37.078;2022-10-23T10:59:29;8.24;69.99
70214;DHT22;60138;55.808;37.078;2022-10-23T11:01:56;8.22;70.17
70214;DHT22;60138;55.808;37.078;2022-10-23T11:04:39;8.19;70.29
70214;DHT22;60138;55.808;37.078;2022-10-23T11:07:17;8.16;70.48
70214;DHT22;60138;55.808;37.078;2022-10-23T11:09:45;8.13;70.61
70214;DHT22;60138;55.808;37.078;2022-10-23T11:12:22;8.13;70.71
70214;DHT22;60138;55.808;37.078;2022-10-23T11:14:48;8.13;70.77
70214;DHT22;60138;55.808;37.078;2022-10-23T11:17:27;8.12;70.83
70214;DHT22;60138;55.808;37.078;2022-10-23T11:31:32;8.14;71.08
70214;DHT22;60138;55.808;37.078;2022-10-23T11:36:44;8.12;71.23
70214;DHT22;60138;55.808;37.078;2022-10-23T11:39:25;8.07;71.26
70214;DHT22;60138;55.808;37.078;2022-10-23T11:42:10;8.06;71.42
70214;DHT22;60138;55.808;37.078;2022-10-23T11:47:33;8.06;71.43
70214;DHT22;60138;55.808;37.078;2022-10-23T11:55:18;8.07;71.58
70214;DHT22;60138;55.808;37.078;2022-10-23T12:00:34;8.04;71.75
70214;DHT22;60138;55.808;37.078;2022-10-23T12:03:03;8.04;71.80
70214;DHT22;60138;55.808;37.078;2022-10-23T12:05:33;8.01;71.84
70214;DHT22;60138;55.808;37.078;2022-10-23T12:08:01;8.01;71.87
70214;DHT22;60138;55.808;37.078;2022-10-23T12:10:30;8.01;71.93
70214;DHT22;60138;55.808;37.078;2022-10-23T12:13:02;7.97;71.89
70214;DHT22;60138;55.808;37.078;2022-10-23T12:15:29;7.94;72.09
70214;DHT22;60138;55.808;37.078;2022-10-23T12:18:15;7.93;72.16
70214;DHT22;60138;55.808;37.078;2022-10-23T12:20:50;7.93;72.16
70214;DHT22;60138;55.808;37.078;2022-10-23T12:26:06;7.87;72.29
70214;DHT22;60138;55.808;37.078;2022-10-23T12:39:33;7.79;72.58
70214;DHT22;60138;55.808;37.078;2022-10-23T12:41:59;7.78;72.69
70214;DHT22;60138;55.808;37.078;2022-10-23T12:44:26;7.76;72.80
70214;DHT22;60138;55.808;37.078;2022-10-23T12:47:00;7.79;72.87
70214;DHT22;60138;55.808;37.078;2022-10-23T12:49:28;7.77;72.88
70214;DHT22;60138;55.808;37.078;2022-10-23T12:51:59;7.79;72.83
70214;DHT22;60138;55.808;37.078;2022-10-23T12:54:26;7.78;72.90
70214;DHT22;60138;55.808;37.078;2022-10-23T12:56:52;7.82;72.93
70214;DHT22;60138;55.808;37.078;2022-10-23T12:59:24;7.82;72.98
70214;DHT22;60138;55.808;37.078;2022-10-23T13:01:50;7.78;72.89
70214;DHT22;60138;55.808;37.078;2022-10-23T13:04:29;7.77;73.03
70214;DHT22;60138;55.808;37.078;2022-10-23T13:06:58;7.78;73.10
70214;DHT22;60138;55.808;37.078;2022-10-23T13:09:32;7.78;73.22
70214;DHT22;60138;55.808;37.078;2022-10-23T13:12:22;7.76;73.15
70214;DHT22;60138;55.808;37.078;2022-10-23T13:17:42;7.74;73.26
70214;DHT22;60138;55.808;37.078;2022-10-23T13:22:44;7.74;73.19
70214;DHT22;60138;55.808;37.078;2022-10-23T13:27:49;7.74;73.38
70214;DHT22;60138;55.808;37.078;2022-10-23T13:30:32;7.75;73.46
70214;DHT22;60138;55.808;37.078;2022-10-23T13:32:58;7.76;73.41
70214;DHT22;60138;55.808;37.078;2022-10-23T13:35:24;7.75;73.38
70214;DHT22;60138;55.808;37.078;2022-10-23T13:37:50;7.73;73.45
70214;DHT22;60138;55.808;37.078;2022-10-23T13:40:26;7.76;73.48
70214;DHT22;60138;55.808;37.078;2022-10-23T13:42:54;7.75;73.41
70214;DHT22;60138;55.808;37.078;2022-10-23T13:45:25;7.73;73.52
70214;DHT22;60138;55.808;37.078;2022-10-23T13:47:52;7.72;73.54
70214;DHT22;60138;55.808;37.078;2022-10-23T13:50:18;7.73;73.54
70214;DHT22;60138;55.808;37.078;2022-10-23T13:52:44;7.72;73.59
70214;DHT22;60138;55.808;37.078;2022-10-23T13:55:22;7.74;73.67
70214;DHT22;60138;55.808;37.078;2022-10-23T13:57:48;7.74;73.60
70214;DHT22;60138;55.808;37.078;2022-10-23T14:00:15;7.72;73.80
70214;DHT22;60138;55.808;37.078;2022-10-23T14:02:41;7.72;73.73
70214;DHT22;60138;55.808;37.078;2022-10-23T14:05:07;7.71;73.78
70214;DHT22;60138;55.808;37.078;2022-10-23T14:07:33;7.71;73.79
70214;DHT22;60138;55.808;37.078;2022-10-23T14:09:58;7.71;73.79
70214;DHT22;60138;55.808;37.078;2022-10-23T14:12:24;7.71;73.82
70214;DHT22;60138;55.808;37.078;2022-10-23T14:14:51;7.69;73.87
70214;DHT22;60138;55.808;37.078;2022-10-23T14:17:17;7.70;73.84
70214;DHT22;60138;55.808;37.078;2022-10-23T14:19:43;7.69;73.83
70214;DHT22;60138;55.808;37.078;2022-10-23T14:22:09;7.67;73.80
70214;DHT22;60138;55.808;37.078;2022-10-23T14:24:34;7.65;73.99
70214;DHT22;60138;55.808;37.078;2022-10-23T14:27:00;7.67;74.00
70214;DHT22;60138;55.808;37.078;2022-10-23T14:29:26;7.64;73.96
70214;DHT22;60138;55.808;37.078;2022-10-23T14:31:51;7.64;74.08
70214;DHT22;60138;55.808;37.078;2022-10-23T14:34:17;7.67;74.11
70214;DHT22;60138;55.808;37.078;2022-10-23T14:36:43;7.69;74.09
70214;DHT22;60138;55.808;37.078;2022-10-23T14:39:08;7.69;74.11
70214;DHT22;60138;55.808;37.078;2022-10-23T14:41:34;7.68;74.12
70214;DHT22;60138;55.808;37.078;2022-10-23T14:43:59;7.63;74.15
70214;DHT22;60138;55.808;37.078;2022-10-23T14:46:25;7.61;74.25
70214;DHT22;60138;55.808;37.078;2022-10-23T14:48:51;7.61;74.33
70214;DHT22;60138;55.808;37.078;2022-10-23T14:51:20;7.60;74.36
70214;DHT22;60138;55.808;37.078;2022-10-23T14:53:47;7.63;74.38
70214;DHT22;60138;55.808;37.078;2022-10-23T14:56:13;7.65;74.44
70214;DHT22;60138;55.808;37.078;2022-10-23T14:58:39;7.65;74.41
70214;DHT22;60138;55.808;37.078;2022-10-23T15:01:05;7.68;74.32
70214;DHT22;60138;55.808;37.078;2022-10-23T15:03:31;7.61;74.46
70214;DHT22;60138;55.808;37.078;2022-10-23T15:05:56;7.60;74.64
70214;DHT22;60138;55.808;37.078;2022-10-23T15:08:22;7.61;74.74
70214;DHT22;60138;55.808;37.078;2022-10-23T15:10:48;7.61;74.71
70214;DHT22;60138;55.808;37.078;2022-10-23T15:13:14;7.61;74.76
70214;DHT22;60138;55.808;37.078;2022-10-23T15:15:40;7.64;74.72
70214;DHT22;60138;55.808;37.078;2022-10-23T15:18:05;7.68;74.72
70214;DHT22;60138;55.808;37.078;2022-10-23T15:20:31;7.70;74.65
70214;DHT22;60138;55.808;37.078;2022-10-23T15:22:57;7.71;74.58
70214;DHT22;60138;55.808;37.078;2022-10-23T15:25:22;7.70;74.58
70214;DHT22;60138;55.808;37.078;2022-10-23T15:27:48;7.70;74.61
70214;DHT22;60138;55.808;37.078;2022-10-23T15:30:14;7.69;74.62
70214;DHT22;60138;55.808;37.078;2022-10-23T15:32:39;7.69;74.64
70214;DHT22;60138;55.808;37.078;2022-10-23T15:35:05;7.71;74.67
70214;DHT22;60138;55.808;37.078;2022-10-23T15:37:31;7.75;74.67
70214;DHT22;60138;55.808;37.078;2022-10-23T15:39:57;7.76;74.58
70214;DHT22;60138;55.808;37.078;2022-10-23T15:42:23;7.77;74.60
70214;DHT22;60138;55.808;37.078;2022-10-23T15:44:49;7.79;74.62
70214;DHT22;60138;55.808;37.078;2022-10-23T15:47:15;7.81;74.60
70214;DHT22;60138;55.808;37.078;2022-10-23T15:49:40;7.82;74.57
70214;DHT22;60138;55.808;37.078;2022-10-23T15:52:06;7.83;74.58
70214;DHT22;60138;55.808;37.078;2022-10-23T15:54:34;7.83;74.60
70214;DHT22;60138;55.808;37.078;2022-10-23T15:57:00;7.84;74.59
70214;DHT22;60138;55.808;37.078;2022-10-23T15:59:26;7.85;74.60
70214;DHT22;60138;55.808;37.078;2022-10-23T16:01:52;7.89;74.57
70214;DHT22;60138;55.808;37.078;2022-10-23T16:04:18;7.91;74.55
70214;DHT22;60138;55.808;37.078;2022-10-23T16:06:44;7.89;74.51
70214;DHT22;60138;55.808;37.078;2022-10-23T16:09:10;7.90;74.47
70214;DHT22;60138;55.808;37.078;2022-10-23T16:11:37;7.85;74.47
70214;DHT22;60138;55.808;37.078;2022-10-23T16:14:04;7.85;74.47
70214;DHT22;60138;55.808;37.078;2022-10-23T16:16:31;7.88;74.53
70214;DHT22;60138;55.808;37.078;2022-10-23T16:19:02;7.89;74.54
70214;DHT22;60138;55.808;37.078;2022-10-23T16:21:34;7.86;74.51
70214;DHT22;60138;55.808;37.078;2022-10-23T16:24:01;7.86;74.54
70214;DHT22;60138;55.808;37.078;2022-10-23T16:26:28;7.85;74.57
70214;DHT22;60138;55.808;37.078;2022-10-23T16:28:59;7.86;74.61
70214;DHT22;60138;55.808;37.078;2022-10-23T16:31:26;7.88;74.64
70214;DHT22;60138;55.808;37.078;2022-10-23T16:33:52;7.88;74.65
70214;DHT22;60138;55.808;37.078;2022-10-23T16:36:18;7.90;74.67
70214;DHT22;60138;55.808;37.078;2022-10-23T16:39:08;7.88;74.69
70214;DHT22;60138;55.808;37.078;2022-10-23T16:41:52;7.90;74.70
70214;DHT22;60138;55.808;37.078;2022-10-23T16:44:19;7.89;74.71
70214;DHT22;60138;55.808;37.078;2022-10-23T16:46:58;7.91;74.72
70214;DHT22;60138;55.808;37.078;2022-10-23T16:49:24;7.89;74.71
70214;DHT22;60138;55.808;37.078;2022-10-23T16:51:50;7.92;74.71
70214;DHT22;60138;55.808;37.078;2022-10-23T16:54:15;7.91;74.67
70214;DHT22;60138;55.808;37.078;2022-10-23T16:56:41;7.91;74.72
70214;DHT22;60138;55.808;37.078;2022-10-23T16:59:08;7.93;74.73
70214;DHT22;60138;55.808;37.078;2022-10-23T17:01:34;7.93;74.73
70214;DHT22;60138;55.808;37.078;2022-10-23T17:03:59;7.94;74.74
70214;DHT22;60138;55.808;37.078;2022-10-23T17:06:30;7.94;74.70
70214;DHT22;60138;55.808;37.078;2022-10-23T17:08:57;7.96;74.71
70214;DHT22;60138;55.808;37.078;2022-10-23T17:11:25;7.96;74.73
70214;DHT22;60138;55.808;37.078;2022-10-23T17:16:27;7.93;74.74
70214;DHT22;60138;55.808;37.078;2022-10-23T17:18:53;7.92;74.76
70214;DHT22;60138;55.808;37.078;2022-10-23T17:21:19;7.93;74.76
70214;DHT22;60138;55.808;37.078;2022-10-23T17:23:46;7.94;74.76
70214;DHT22;60138;55.808;37.078;2022-10-23T17:26:15;7.94;74.71
70214;DHT22;60138;55.808;37.078;2022-10-23T17:28:41;7.94;74.71
70214;DHT22;60138;55.808;37.078;2022-10-23T17:31:19;7.92;74.79
70214;DHT22;60138;55.808;37.078;2022-10-23T17:33:46;7.92;74.75
70214;DHT22;60138;55.808;37.078;2022-10-23T17:36:13;7.86;74.78
70214;DHT22;60138;55.808;37.078;2022-10-23T17:38:40;7.86;74.90
70214;DHT22;60138;55.808;37.078;2022-10-23T17:41:07;7.90;74.94
70214;DHT22;60138;55.808;37.078;2022-10-23T17:43:33;7.90;74.93
70214;DHT22;60138;55.808;37.078;2022-10-23T17:45:59;7.93;74.89
70214;DHT22;60138;55.808;37.078;2022-10-23T17:48:25;7.93;74.88
70214;DHT22;60138;55.808;37.078;2022-10-23T17:53:38;7.94;74.85
70214;DHT22;60138;55.808;37.078;2022-10-23T17:56:06;7.94;74.87
70214;DHT22;60138;55.808;37.078;2022-10-23T17:58:33;7.97;74.88